Time;durP1;ratioP1;P1;durP2;ratioP2;P2;SDS_P1;SDS_P2;PMS_P1;PMS_P2;Temp;Humidity;BMP_temperature;BMP_pressure;BME280_temperature;BME280_humidity;BME280_pressure;Samples;Min_cycle;Max_cycle;Signal;HPM_P1;HPM_P2
2023/10/06 00:00:48;;;;;;;6.37;3.97;;;11.40;99.90;;;;;;951735;146;27286;-79
2023/10/06 00:03:16;;;;;;;4.13;3.70;;;11.40;99.90;;;;;;956010;146;27362;-78
2023/10/06 00:05:48;;;;;;;4.57;3.83;;;11.30;99.90;;;;;;952407;146;27414;-77
2023/10/06 00:08:16;;;;;;;5.20;3.70;;;11.30;99.90;;;;;;952236;146;27405;-79
2023/10/06 00:10:44;;;;;;;3.73;3.40;;;11.30;99.90;;;;;;952253;146;27413;-79
2023/10/06 00:13:12;;;;;;;5.60;3.97;;;11.30;99.90;;;;;;951421;146;27308;-79
2023/10/06 00:15:40;;;;;;;6.27;4.10;;;11.30;99.90;;;;;;953045;146;27250;-79
2023/10/06 00:18:16;;;;;;;4.60;4.20;;;11.30;99.90;;;;;;951111;146;27368;-79
2023/10/06 00:20:56;;;;;;;4.97;3.83;;;11.20;99.90;;;;;;952061;146;27320;-80
2023/10/06 00:23:21;;;;;;;4.43;4.00;;;11.20;99.90;;;;;;950023;146;27381;-79
2023/10/06 00:25:44;;;;;;;4.30;3.67;;;11.20;99.90;;;;;;951276;146;27401;-79
2023/10/06 00:28:19;;;;;;;4.40;3.70;;;11.20;99.90;;;;;;951167;146;27390;-73
2023/10/06 00:30:46;;;;;;;6.33;3.37;;;11.20;99.90;;;;;;951668;146;27364;-73
2023/10/06 00:33:10;;;;;;;5.07;4.03;;;11.20;99.90;;;;;;950517;146;27435;-73
2023/10/06 00:35:36;;;;;;;8.60;4.83;;;11.20;99.90;;;;;;951391;146;28000;-72
2023/10/06 00:38:18;;;;;;;4.37;3.93;;;11.20;99.90;;;;;;950461;146;27290;-73
2023/10/06 00:40:50;;;;;;;6.40;3.70;;;11.20;99.90;;;;;;953614;146;27458;-76
2023/10/06 00:43:15;;;;;;;5.03;4.17;;;11.20;99.90;;;;;;951557;146;27334;-72
2023/10/06 00:45:39;;;;;;;5.10;4.00;;;11.20;99.90;;;;;;952612;146;27421;-73
2023/10/06 00:48:10;;;;;;;5.40;4.27;;;11.20;99.90;;;;;;951913;146;27345;-73
2023/10/06 00:50:32;;;;;;;7.00;4.47;;;11.20;99.90;;;;;;953610;146;27317;-72
2023/10/06 00:52:58;;;;;;;5.93;4.03;;;11.20;99.90;;;;;;951375;146;27259;-73
2023/10/06 00:55:26;;;;;;;5.60;3.90;;;11.20;99.90;;;;;;953150;146;27337;-74
2023/10/06 00:57:54;;;;;;;5.83;4.37;;;11.10;99.90;;;;;;951053;146;27332;-73
2023/10/06 01:00:24;;;;;;;5.03;3.77;;;11.10;99.90;;;;;;951828;146;27342;-73
2023/10/06 01:02:50;;;;;;;4.67;4.10;;;11.10;99.90;;;;;;955002;146;27434;-74
2023/10/06 01:05:17;;;;;;;6.23;3.97;;;11.10;99.90;;;;;;952679;145;27282;-73
2023/10/06 01:07:46;;;;;;;7.70;4.40;;;11.10;99.90;;;;;;952348;146;27290;-73
2023/10/06 01:10:17;;;;;;;7.13;4.00;;;11.10;99.90;;;;;;953151;146;27474;-73
2023/10/06 01:12:43;;;;;;;3.97;3.57;;;11.10;99.90;;;;;;953574;146;27286;-74
2023/10/06 01:15:19;;;;;;;5.80;3.83;;;11.10;99.90;;;;;;954952;146;27332;-73
2023/10/06 01:17:35;;;;;;;4.27;3.83;;;11.10;99.90;;;;;;948370;146;27408;-73
2023/10/06 01:20:02;;;;;;;5.53;3.87;;;11.00;99.90;;;;;;951257;146;27296;-76
2023/10/06 01:22:30;;;;;;;5.40;4.13;;;11.00;99.90;;;;;;952298;146;27440;-73
2023/10/06 01:24:55;;;;;;;5.47;3.90;;;11.00;99.90;;;;;;953135;146;27273;-72
2023/10/06 01:27:27;;;;;;;4.27;3.87;;;10.90;99.90;;;;;;953026;146;27439;-74
2023/10/06 01:30:40;;;;;;;5.97;3.83;;;11.00;99.90;;;;;;952322;146;29181;-73
2023/10/06 01:32:21;;;;;;;5.33;3.63;;;10.90;99.90;;;;;;942030;146;27407;-76
2023/10/06 01:34:50;;;;;;;7.13;4.27;;;10.90;99.90;;;;;;953513;146;27417;-74
2023/10/06 01:37:15;;;;;;;4.53;3.57;;;10.90;99.90;;;;;;952744;146;27406;-76
2023/10/06 01:39:41;;;;;;;8.70;4.27;;;10.90;99.90;;;;;;952484;146;27307;-76
2023/10/06 01:42:07;;;;;;;4.60;3.47;;;10.80;99.90;;;;;;952413;146;27290;-76
2023/10/06 01:44:34;;;;;;;4.43;4.00;;;10.80;99.90;;;;;;951880;146;27431;-76
2023/10/06 01:47:00;;;;;;;5.60;3.97;;;10.80;99.90;;;;;;951064;146;27688;-76
2023/10/06 01:49:28;;;;;;;4.63;3.83;;;10.80;99.90;;;;;;952318;146;27427;-76
2023/10/06 01:51:53;;;;;;;7.40;4.23;;;10.80;99.90;;;;;;952311;146;27346;-76
2023/10/06 01:54:25;;;;;;;5.50;4.10;;;10.80;99.90;;;;;;950766;146;27353;-76
2023/10/06 01:56:47;;;;;;;8.77;3.93;;;10.80;99.90;;;;;;951565;146;27286;-76
2023/10/06 01:59:14;;;;;;;5.30;3.73;;;10.80;99.90;;;;;;951431;146;27304;-76
2023/10/06 02:01:41;;;;;;;6.83;4.00;;;10.80;99.90;;;;;;952759;146;27344;-76
2023/10/06 02:04:15;;;;;;;4.80;3.73;;;10.70;99.90;;;;;;951078;146;27368;-76
2023/10/06 02:06:33;;;;;;;5.57;4.50;;;10.70;99.90;;;;;;952236;146;27328;-76
2023/10/06 02:09:05;;;;;;;4.73;3.50;;;10.70;99.90;;;;;;951666;146;27362;-76
2023/10/06 02:11:30;;;;;;;7.57;4.07;;;10.70;99.90;;;;;;951042;146;27380;-76
2023/10/06 02:13:55;;;;;;;5.53;3.80;;;10.70;99.90;;;;;;952314;146;27405;-76
2023/10/06 02:16:26;;;;;;;5.53;3.67;;;10.70;99.90;;;;;;951532;146;27378;-76
2023/10/06 02:18:49;;;;;;;4.43;3.97;;;10.70;99.90;;;;;;952545;146;27345;-76
2023/10/06 02:21:16;;;;;;;4.60;3.90;;;10.70;99.90;;;;;;952651;146;27429;-76
2023/10/06 02:23:43;;;;;;;5.77;3.97;;;10.70;99.90;;;;;;953367;146;27425;-76
2023/10/06 02:26:09;;;;;;;8.63;3.87;;;10.70;99.90;;;;;;953325;146;27270;-76
2023/10/06 02:28:36;;;;;;;4.23;3.83;;;10.70;99.90;;;;;;951380;146;27434;-76
2023/10/06 02:31:05;;;;;;;5.70;4.23;;;10.70;99.90;;;;;;946911;146;27304;-76
2023/10/06 02:33:29;;;;;;;6.50;4.70;;;10.70;99.90;;;;;;947100;146;27251;-76
2023/10/06 02:35:56;;;;;;;6.10;4.67;;;10.70;99.90;;;;;;948668;146;27354;-76
2023/10/06 02:38:21;;;;;;;5.17;4.00;;;10.70;99.90;;;;;;946451;146;27340;-76
2023/10/06 02:40:48;;;;;;;12.90;4.80;;;10.70;99.90;;;;;;950228;146;27394;-76
2023/10/06 02:43:20;;;;;;;10.30;5.67;;;10.70;99.90;;;;;;946683;146;27399;-76
2023/10/06 02:45:41;;;;;;;5.70;4.20;;;10.70;99.90;;;;;;944397;146;27313;-76
2023/10/06 02:48:22;;;;;;;4.50;3.73;;;10.70;99.90;;;;;;946443;146;27675;-76
2023/10/06 02:50:36;;;;;;;5.77;3.90;;;10.70;99.90;;;;;;945647;146;27368;-76
2023/10/06 02:53:01;;;;;;;5.17;4.67;;;10.70;99.90;;;;;;947107;146;27466;-76
2023/10/06 02:55:36;;;;;;;5.70;3.87;;;10.60;99.90;;;;;;946780;146;28402;-76
2023/10/06 02:57:56;;;;;;;4.53;3.93;;;10.60;99.90;;;;;;946134;146;27436;-76
2023/10/06 03:02:56;;;;;;;5.57;4.10;;;10.60;99.90;;;;;;947016;146;27905;-76
2023/10/06 03:05:31;;;;;;;4.30;3.90;;;10.60;99.90;;;;;;948048;146;27414;-77
2023/10/06 03:07:50;;;;;;;5.53;4.00;;;10.50;99.90;;;;;;946873;146;27381;-76
2023/10/06 03:10:18;;;;;;;5.90;4.10;;;10.50;99.90;;;;;;947053;146;27820;-76
2023/10/06 03:12:43;;;;;;;4.43;3.60;;;10.50;99.90;;;;;;947563;146;27326;-76
2023/10/06 03:15:27;;;;;;;5.63;4.00;;;10.40;99.90;;;;;;948609;146;27439;-76
2023/10/06 03:17:35;;;;;;;7.87;4.33;;;10.40;99.90;;;;;;946854;146;27443;-76
2023/10/06 03:20:11;;;;;;;5.73;4.27;;;10.40;99.90;;;;;;949577;146;27347;-76
2023/10/06 03:22:40;;;;;;;4.27;3.87;;;10.40;99.90;;;;;;947370;146;27436;-76
2023/10/06 03:25:18;;;;;;;5.47;4.07;;;10.40;99.90;;;;;;946298;146;27459;-76
2023/10/06 03:27:54;;;;;;;4.73;3.83;;;10.30;99.90;;;;;;945042;146;27364;-76
2023/10/06 03:30:35;;;;;;;6.00;4.10;;;10.30;99.90;;;;;;936532;146;27438;-76
2023/10/06 03:32:52;;;;;;;5.57;4.27;;;10.30;99.90;;;;;;931893;149;27424;-76
2023/10/06 03:35:23;;;;;;;3.80;3.47;;;10.30;99.90;;;;;;932738;149;27466;-76
2023/10/06 03:38:08;;;;;;;5.70;3.43;;;10.30;99.90;;;;;;933795;149;27824;-76
2023/10/06 03:40:23;;;;;;;4.73;4.30;;;10.20;99.90;;;;;;934510;149;27524;-76
2023/10/06 03:42:48;;;;;;;8.50;4.47;;;10.30;99.90;;;;;;933868;149;27320;-76
2023/10/06 03:45:48;;;;;;;7.10;4.27;;;10.30;99.90;;;;;;933354;149;27776;-76
2023/10/06 03:47:48;;;;;;;16.87;4.87;;;10.20;99.90;;;;;;928931;149;27476;-76
2023/10/06 03:50:14;;;;;;;8.60;4.50;;;10.20;99.90;;;;;;934215;149;27380;-76
2023/10/06 03:52:39;;;;;;;6.73;3.70;;;10.30;99.90;;;;;;931152;149;27287;-76
2023/10/06 03:55:06;;;;;;;7.73;3.70;;;10.30;99.90;;;;;;936449;149;27315;-76
2023/10/06 03:57:32;;;;;;;4.47;3.90;;;10.30;99.90;;;;;;935836;149;27504;-78
2023/10/06 03:59:59;;;;;;;6.13;4.20;;;10.30;99.90;;;;;;936413;149;27997;-78
2023/10/06 04:02:27;;;;;;;9.07;4.40;;;10.30;99.90;;;;;;938828;148;27353;-77
2023/10/06 04:04:52;;;;;;;4.67;3.70;;;10.20;99.90;;;;;;934658;149;27347;-78
2023/10/06 04:07:19;;;;;;;8.37;3.93;;;10.20;99.90;;;;;;934370;149;27369;-78
2023/10/06 04:09:49;;;;;;;5.90;4.10;;;10.20;99.90;;;;;;935386;149;27367;-75
2023/10/06 04:12:12;;;;;;;6.73;3.80;;;10.20;99.90;;;;;;930599;149;27419;-76
2023/10/06 04:14:38;;;;;;;8.10;3.93;;;10.20;99.90;;;;;;934780;149;27489;-78
2023/10/06 04:17:05;;;;;;;3.53;3.23;;;10.20;99.90;;;;;;931914;149;27346;-78
2023/10/06 04:19:34;;;;;;;4.87;3.33;;;10.20;99.90;;;;;;936137;149;27410;-77
2023/10/06 04:21:58;;;;;;;4.00;3.70;;;10.20;99.90;;;;;;934062;149;27902;-77
2023/10/06 04:24:25;;;;;;;4.37;3.97;;;10.20;99.90;;;;;;933060;149;27737;-78
2023/10/06 04:26:51;;;;;;;4.60;4.20;;;10.10;99.90;;;;;;931101;149;27421;-78
2023/10/06 04:29:18;;;;;;;4.20;3.80;;;10.10;99.90;;;;;;935205;146;27412;-78
2023/10/06 04:31:46;;;;;;;3.80;3.50;;;10.10;99.90;;;;;;948332;146;27363;-78
2023/10/06 04:34:11;;;;;;;4.70;4.20;;;10.10;99.90;;;;;;945979;146;27292;-78
2023/10/06 04:36:38;;;;;;;4.40;4.00;;;10.10;99.90;;;;;;946219;146;27381;-77
2023/10/06 04:39:09;;;;;;;4.57;3.93;;;10.00;99.90;;;;;;948389;146;27431;-78
2023/10/06 04:41:31;;;;;;;4.37;3.97;;;10.00;99.90;;;;;;951218;146;27414;-75
2023/10/06 04:44:02;;;;;;;4.07;3.73;;;10.00;99.90;;;;;;948175;146;27358;-78
2023/10/06 04:46:25;;;;;;;4.27;3.97;;;10.00;99.90;;;;;;947410;146;27357;-76
2023/10/06 04:48:52;;;;;;;3.93;3.53;;;10.00;99.90;;;;;;948799;146;27347;-75
2023/10/06 04:51:17;;;;;;;3.50;3.20;;;9.90;99.90;;;;;;948294;146;27275;-78
2023/10/06 04:53:45;;;;;;;4.27;3.87;;;9.90;99.90;;;;;;946822;146;27447;-78
2023/10/06 04:56:10;;;;;;;3.97;3.67;;;9.90;99.90;;;;;;946655;146;27304;-77
2023/10/06 04:58:39;;;;;;;4.60;3.60;;;9.90;99.90;;;;;;947244;146;27430;-75
2023/10/06 05:01:04;;;;;;;4.10;3.70;;;9.90;99.90;;;;;;948796;146;27256;-78
2023/10/06 05:03:45;;;;;;;4.13;3.40;;;9.80;99.90;;;;;;945693;146;27860;-78
2023/10/06 05:06:16;;;;;;;3.27;2.97;;;9.80;99.90;;;;;;947724;146;27426;-81
2023/10/06 05:08:41;;;;;;;3.70;3.40;;;9.80;99.90;;;;;;947749;146;27407;-78
2023/10/06 05:11:08;;;;;;;3.93;3.53;;;9.70;99.90;;;;;;946201;146;27271;-78
2023/10/06 05:13:34;;;;;;;4.90;3.77;;;9.70;99.90;;;;;;949177;146;27325;-77
2023/10/06 05:16:03;;;;;;;4.23;3.50;;;9.70;99.90;;;;;;949044;146;27359;-76
2023/10/06 05:18:29;;;;;;;4.80;3.67;;;9.70;99.90;;;;;;947219;146;27298;-76
2023/10/06 05:20:54;;;;;;;3.90;3.50;;;9.70;99.90;;;;;;949739;146;27876;-78
2023/10/06 05:23:20;;;;;;;3.87;3.40;;;9.70;99.90;;;;;;948901;146;27795;-78
2023/10/06 05:25:47;;;;;;;3.90;3.43;;;9.60;99.90;;;;;;949754;146;27300;-78
2023/10/06 05:28:16;;;;;;;3.93;3.53;;;9.60;99.90;;;;;;947339;145;27362;-78
2023/10/06 05:30:42;;;;;;;3.77;3.30;;;9.60;99.90;;;;;;949613;146;27486;-77
2023/10/06 05:33:07;;;;;;;3.87;3.47;;;9.60;99.90;;;;;;952414;146;27324;-76
2023/10/06 05:35:38;;;;;;;5.90;3.20;;;9.60;99.90;;;;;;954198;146;27387;-76
2023/10/06 05:38:00;;;;;;;3.80;3.50;;;9.50;99.90;;;;;;951770;146;27356;-76
2023/10/06 05:40:29;;;;;;;4.10;3.70;;;9.50;99.90;;;;;;952928;146;27424;-76
2023/10/06 05:42:53;;;;;;;4.60;3.23;;;9.50;99.90;;;;;;954499;146;27350;-76
2023/10/06 05:45:20;;;;;;;3.40;3.10;;;9.50;99.90;;;;;;954729;146;27412;-76
2023/10/06 05:47:46;;;;;;;4.73;3.50;;;9.60;99.90;;;;;;952976;146;27842;-76
2023/10/06 05:50:26;;;;;;;4.50;3.60;;;9.50;99.90;;;;;;952662;146;27322;-76
2023/10/06 05:52:42;;;;;;;3.23;2.83;;;9.50;99.90;;;;;;951703;146;27376;-76
2023/10/06 05:55:09;;;;;;;4.43;3.60;;;9.60;99.90;;;;;;952519;146;27327;-76
2023/10/06 05:57:48;;;;;;;4.33;3.47;;;9.60;99.90;;;;;;953271;146;27342;-76
2023/10/06 06:00:09;;;;;;;3.23;2.97;;;9.70;99.90;;;;;;951177;146;27369;-76
2023/10/06 06:02:36;;;;;;;3.67;3.30;;;9.80;99.90;;;;;;954685;146;27348;-76
2023/10/06 06:04:58;;;;;;;4.23;3.33;;;9.90;99.90;;;;;;950322;146;27234;-76
2023/10/06 06:07:25;;;;;;;4.23;3.17;;;10.10;99.90;;;;;;955368;146;27335;-76
2023/10/06 06:09:51;;;;;;;3.30;3.10;;;10.30;99.90;;;;;;952816;146;27387;-76
2023/10/06 06:12:21;;;;;;;4.70;2.90;;;10.50;99.90;;;;;;952030;146;27876;-76
2023/10/06 06:14:44;;;;;;;3.40;3.10;;;10.80;99.90;;;;;;952165;146;27255;-76
2023/10/06 06:17:11;;;;;;;3.07;2.87;;;11.10;99.90;;;;;;953769;146;27288;-76
2023/10/06 06:19:39;;;;;;;3.43;3.13;;;11.40;99.90;;;;;;952451;146;27336;-72
2023/10/06 06:22:05;;;;;;;4.77;3.30;;;11.60;99.90;;;;;;953734;146;27315;-76
2023/10/06 06:24:31;;;;;;;2.60;2.33;;;12.00;99.90;;;;;;952870;146;27318;-75
2023/10/06 06:27:00;;;;;;;2.43;2.30;;;12.40;99.90;;;;;;952766;146;27343;-76
2023/10/06 06:29:24;;;;;;;2.75;2.55;;;12.80;99.90;;;;;;952529;146;27410;-78
2023/10/06 06:31:52;;;;;;;2.43;2.23;;;13.20;99.90;;;;;;948596;146;27414;-76
2023/10/06 06:34:17;;;;;;;2.30;2.10;;;13.60;99.90;;;;;;947652;146;27655;-77
2023/10/06 06:36:45;;;;;;;2.47;2.27;;;14.00;99.90;;;;;;946521;146;27313;-79
2023/10/06 06:39:10;;;;;;;2.92;2.45;;;14.40;99.90;;;;;;946915;146;27325;-75
2023/10/06 06:41:37;;;;;;;2.40;2.20;;;14.70;99.90;;;;;;947227;146;27394;-75
2023/10/06 06:44:03;;;;;;;3.15;2.20;;;14.90;99.90;;;;;;947317;146;28760;-74
2023/10/06 06:46:30;;;;;;;2.85;2.50;;;15.10;99.90;;;;;;947439;146;27270;-76
2023/10/06 06:48:57;;;;;;;2.20;2.10;;;15.20;99.90;;;;;;946322;146;27303;-74
2023/10/06 06:51:28;;;;;;;2.75;2.47;;;15.20;99.90;;;;;;948588;146;27319;-75
2023/10/06 06:53:53;;;;;;;3.77;2.27;;;15.20;99.90;;;;;;946732;146;27386;-73
2023/10/06 06:56:20;;;;;;;2.60;2.35;;;15.20;99.90;;;;;;947892;146;27423;-73
2023/10/06 06:58:48;;;;;;;2.60;2.40;;;15.20;99.90;;;;;;947778;146;27442;-72
2023/10/06 07:01:14;;;;;;;3.08;2.58;;;15.20;99.90;;;;;;946552;146;27349;-76
2023/10/06 07:03:40;;;;;;;3.08;2.70;;;15.10;99.90;;;;;;946896;146;27347;-75
2023/10/06 07:06:08;;;;;;;3.92;2.58;;;15.10;99.90;;;;;;947424;146;27247;-73
2023/10/06 07:08:33;;;;;;;6.12;3.00;;;15.10;99.90;;;;;;944433;146;27275;-74
2023/10/06 07:10:59;;;;;;;3.58;3.25;;;15.10;99.90;;;;;;946553;146;27342;-74
2023/10/06 07:13:26;;;;;;;3.65;3.35;;;15.10;99.90;;;;;;946076;146;27527;-74
2023/10/06 07:15:53;;;;;;;5.40;3.65;;;15.10;99.90;;;;;;945967;146;27299;-76
2023/10/06 07:18:19;;;;;;;5.53;3.50;;;15.20;99.90;;;;;;948864;146;27350;-73
2023/10/06 07:20:46;;;;;;;5.62;3.35;;;15.30;99.90;;;;;;946664;146;27339;-72
2023/10/06 07:23:12;;;;;;;8.60;4.42;;;15.40;99.90;;;;;;945675;146;27312;-74
2023/10/06 07:25:39;;;;;;;4.58;4.17;;;15.50;99.90;;;;;;948771;146;27266;-73
2023/10/06 07:28:06;;;;;;;4.40;3.60;;;15.60;99.90;;;;;;946344;146;27328;-76
2023/10/06 07:30:37;;;;;;;4.15;3.75;;;15.70;99.90;;;;;;943639;146;27338;-76
2023/10/06 07:33:05;;;;;;;4.10;3.80;;;15.80;99.90;;;;;;949397;146;27662;-76
2023/10/06 07:35:51;;;;;;;4.00;3.70;;;15.90;99.90;;;;;;950717;146;27353;-76
2023/10/06 07:38:15;;;;;;;3.75;3.45;;;16.00;99.90;;;;;;948304;146;27435;-76
2023/10/06 07:40:45;;;;;;;3.90;3.40;;;16.10;99.90;;;;;;950312;146;27279;-76
2023/10/06 07:43:09;;;;;;;3.35;3.10;;;16.20;99.90;;;;;;947086;146;27318;-76
2023/10/06 07:45:35;;;;;;;3.52;3.22;;;16.30;99.90;;;;;;949291;146;27403;-76
2023/10/06 07:48:05;;;;;;;3.08;2.87;;;16.40;99.90;;;;;;950181;146;27309;-76
2023/10/06 07:50:29;;;;;;;3.65;3.17;;;16.50;99.90;;;;;;949531;146;27434;-76
2023/10/06 07:52:55;;;;;;;3.47;3.17;;;16.50;99.90;;;;;;950499;146;27318;-76
2023/10/06 07:55:23;;;;;;;3.40;3.05;;;16.60;99.90;;;;;;950619;146;27313;-76
2023/10/06 07:57:51;;;;;;;2.72;2.52;;;16.80;99.90;;;;;;951920;146;27340;-76
2023/10/06 08:00:30;;;;;;;3.25;2.95;;;16.90;99.90;;;;;;951125;146;27317;-76
2023/10/06 08:02:55;;;;;;;3.25;2.95;;;17.10;99.90;;;;;;950880;146;27329;-76
2023/10/06 08:05:22;;;;;;;2.80;2.60;;;17.40;99.90;;;;;;951509;146;27435;-76
2023/10/06 08:07:49;;;;;;;2.70;2.52;;;17.70;99.90;;;;;;952284;146;27434;-76
2023/10/06 08:10:15;;;;;;;2.80;2.60;;;18.00;99.90;;;;;;951082;146;27292;-76
2023/10/06 08:12:49;;;;;;;2.87;2.67;;;18.30;99.90;;;;;;952104;146;27473;-76
2023/10/06 08:15:17;;;;;;;2.90;2.70;;;18.60;99.90;;;;;;948394;146;27354;-76
2023/10/06 08:17:45;;;;;;;3.05;2.77;;;18.90;99.00;;;;;;951896;146;27434;-76
2023/10/06 08:20:12;;;;;;;2.55;2.30;;;19.30;99.90;;;;;;951188;146;27330;-76
2023/10/06 08:22:37;;;;;;;2.62;2.42;;;19.80;99.90;;;;;;949683;146;27313;-76
2023/10/06 08:25:05;;;;;;;2.05;1.95;;;20.50;99.90;;;;;;951884;146;27347;-76
2023/10/06 08:27:30;;;;;;;2.17;1.90;;;21.20;99.90;;;;;;951426;146;27315;-76
2023/10/06 08:29:57;;;;;;;2.52;2.33;;;22.00;99.40;;;;;;953353;146;27350;-76
2023/10/06 08:32:24;;;;;;;2.08;1.98;;;22.90;97.00;;;;;;952822;145;27329;-76
2023/10/06 08:34:51;;;;;;;1.90;1.80;;;23.70;94.40;;;;;;949102;146;27424;-76
2023/10/06 08:37:16;;;;;;;2.10;1.92;;;24.50;92.80;;;;;;948769;146;27325;-76
2023/10/06 08:39:46;;;;;;;2.40;2.30;;;25.30;90.40;;;;;;948992;146;27444;-76
2023/10/06 08:42:14;;;;;;;1.85;1.75;;;26.00;87.00;;;;;;947347;146;27290;-76
2023/10/06 08:44:39;;;;;;;1.98;1.65;;;26.60;84.00;;;;;;948910;146;27439;-76
2023/10/06 08:47:06;;;;;;;2.27;2.10;;;27.30;81.00;;;;;;948754;145;27337;-76
2023/10/06 08:49:32;;;;;;;2.25;1.85;;;27.90;78.10;;;;;;947934;146;27271;-76
2023/10/06 08:51:59;;;;;;;1.92;1.82;;;28.40;75.70;;;;;;947876;146;27446;-76
2023/10/06 08:54:25;;;;;;;3.10;1.95;;;28.80;73.50;;;;;;950543;146;26312;-77
2023/10/06 08:56:52;;;;;;;2.20;2.08;;;29.20;71.00;;;;;;947663;146;27300;-77
2023/10/06 08:59:20;;;;;;;2.05;1.85;;;29.60;69.10;;;;;;946871;146;26573;-77
2023/10/06 09:01:45;;;;;;;2.37;2.17;;;29.90;67.70;;;;;;945913;146;27426;-77
2023/10/06 09:04:12;;;;;;;3.40;1.98;;;30.00;65.30;;;;;;947875;146;27327;-77
2023/10/06 09:06:41;;;;;;;3.05;2.30;;;30.20;64.80;;;;;;946821;146;27479;-77
2023/10/06 09:09:12;;;;;;;2.02;1.90;;;30.30;63.60;;;;;;935948;146;26282;-77
2023/10/06 09:11:37;;;;;;;2.30;2.10;;;30.30;62.50;;;;;;943788;146;26258;-77
2023/10/06 09:14:11;;;;;;;2.67;2.05;;;30.20;61.90;;;;;;947998;146;27447;-77
2023/10/06 09:16:50;;;;;;;2.70;2.10;;;30.20;61.30;;;;;;945980;146;27344;-77
2023/10/06 09:19:17;;;;;;;2.75;2.00;;;30.10;60.70;;;;;;945187;146;27422;-77
2023/10/06 09:22:02;;;;;;;2.55;2.12;;;30.00;60.80;;;;;;947062;146;26219;-77
2023/10/06 09:24:29;;;;;;;3.05;2.02;;;29.90;60.20;;;;;;947641;146;26258;-77
2023/10/06 09:26:55;;;;;;;2.60;2.00;;;29.90;60.10;;;;;;946528;146;27336;-77
2023/10/06 09:29:36;;;;;;;2.87;2.05;;;29.80;59.50;;;;;;946577;146;26384;-77
2023/10/06 09:32:01;;;;;;;4.90;2.20;;;29.60;59.10;;;;;;947504;146;27368;-77
2023/10/06 09:34:27;;;;;;;2.87;2.05;;;29.40;58.90;;;;;;949119;146;27402;-77
2023/10/06 09:36:54;;;;;;;3.00;2.45;;;29.30;58.90;;;;;;949580;146;27788;-77
2023/10/06 09:39:26;;;;;;;3.33;2.22;;;29.00;58.30;;;;;;950222;146;27279;-77
2023/10/06 09:41:54;;;;;;;3.80;2.27;;;28.80;58.30;;;;;;945985;146;27435;-77
2023/10/06 09:44:19;;;;;;;4.85;2.67;;;28.50;58.20;;;;;;945015;146;27342;-77
2023/10/06 09:46:46;;;;;;;2.55;2.20;;;28.30;58.30;;;;;;949026;146;27231;-77
2023/10/06 09:49:16;;;;;;;3.00;2.47;;;28.10;58.40;;;;;;947995;146;27419;-74
2023/10/06 09:51:41;;;;;;;4.28;2.87;;;27.90;58.30;;;;;;947750;146;27290;-74
2023/10/06 09:54:09;;;;;;;3.37;2.20;;;27.70;58.40;;;;;;949604;146;27824;-74
2023/10/06 09:56:32;;;;;;;4.45;2.52;;;27.50;58.50;;;;;;947157;146;27849;-75
2023/10/06 09:58:59;;;;;;;3.35;2.42;;;27.40;58.40;;;;;;948747;146;27295;-75
2023/10/06 10:01:28;;;;;;;3.00;2.30;;;27.20;58.20;;;;;;945961;146;27424;-73
2023/10/06 10:03:54;;;;;;;3.25;1.92;;;27.00;58.30;;;;;;947090;146;27456;-75
2023/10/06 10:06:21;;;;;;;4.55;2.58;;;26.80;58.50;;;;;;946182;146;27339;-74
2023/10/06 10:08:45;;;;;;;3.37;2.17;;;26.50;58.60;;;;;;945833;146;27306;-74
2023/10/06 10:11:31;;;;;;;2.33;1.80;;;26.40;58.50;;;;;;947178;146;27304;-73
2023/10/06 10:14:28;;;;;;;2.98;2.20;;;26.20;58.60;;;;;;946264;145;27350;-73
2023/10/06 10:17:13;;;;;;;3.10;2.33;;;26.00;58.70;;;;;;948608;146;27271;-74
2023/10/06 10:19:36;;;;;;;2.42;2.20;;;25.70;58.90;;;;;;941034;146;27393;-74
2023/10/06 10:22:03;;;;;;;2.50;2.08;;;25.50;59.00;;;;;;946490;146;27345;-73
2023/10/06 10:24:31;;;;;;;3.15;2.12;;;25.40;59.30;;;;;;949414;146;27393;-77
2023/10/06 10:26:56;;;;;;;2.83;2.30;;;25.20;59.40;;;;;;946508;146;27346;-73
2023/10/06 10:29:24;;;;;;;3.22;2.20;;;25.00;59.50;;;;;;945134;146;27304;-76
2023/10/06 10:31:57;;;;;;;3.90;2.90;;;24.80;59.70;;;;;;945780;146;27922;-73
2023/10/06 10:34:27;;;;;;;3.22;1.92;;;24.70;59.90;;;;;;950894;146;27423;-73
2023/10/06 10:37:12;;;;;;;4.30;2.67;;;24.50;60.10;;;;;;949606;146;27423;-77
2023/10/06 10:39:49;;;;;;;2.50;2.30;;;24.40;60.30;;;;;;950216;146;27475;-74
2023/10/06 10:42:19;;;;;;;4.75;2.08;;;24.30;60.90;;;;;;952661;146;27512;-75
2023/10/06 10:44:43;;;;;;;3.75;2.65;;;24.10;61.30;;;;;;952391;146;27327;-76
2023/10/06 10:47:10;;;;;;;4.42;2.72;;;24.10;61.30;;;;;;950701;146;27373;-73
2023/10/06 10:49:36;;;;;;;2.25;2.05;;;24.00;61.30;;;;;;950657;146;27323;-73
2023/10/06 10:52:04;;;;;;;2.70;2.33;;;24.00;61.50;;;;;;949926;146;28337;-73
2023/10/06 10:54:29;;;;;;;3.02;2.37;;;23.90;61.70;;;;;;952121;146;27936;-73
2023/10/06 10:57:02;;;;;;;3.20;2.50;;;23.90;61.80;;;;;;951285;146;27343;-74
2023/10/06 10:59:23;;;;;;;2.72;2.25;;;23.90;62.10;;;;;;950749;146;27417;-81
2023/10/06 11:01:51;;;;;;;3.70;2.35;;;23.90;62.30;;;;;;956581;146;27274;-82
2023/10/06 11:04:37;;;;;;;6.58;2.70;;;23.90;62.10;;;;;;951858;146;27725;-82
2023/10/06 11:07:04;;;;;;;3.80;2.30;;;24.00;62.00;;;;;;953058;146;27347;-82
2023/10/06 11:09:28;;;;;;;4.30;2.30;;;24.00;62.00;;;;;;949192;146;27496;-75
2023/10/06 11:11:56;;;;;;;3.50;2.20;;;24.00;61.70;;;;;;952924;146;27424;-82
2023/10/06 11:14:23;;;;;;;2.55;2.05;;;24.00;61.40;;;;;;951255;146;27452;-82
2023/10/06 11:16:49;;;;;;;2.72;1.85;;;23.90;61.20;;;;;;953856;146;27350;-82
2023/10/06 11:19:16;;;;;;;2.35;1.95;;;23.90;61.20;;;;;;951701;146;27278;-81
2023/10/06 11:21:47;;;;;;;4.08;2.50;;;23.80;61.20;;;;;;951982;146;27391;-76
2023/10/06 11:24:10;;;;;;;3.17;2.40;;;23.70;61.60;;;;;;950598;146;27284;-80
2023/10/06 11:26:36;;;;;;;3.55;2.42;;;23.60;61.40;;;;;;953324;146;27447;-82
2023/10/06 11:29:02;;;;;;;3.50;2.30;;;23.60;61.50;;;;;;951372;146;27329;-82
2023/10/06 11:31:29;;;;;;;3.87;2.33;;;23.60;61.80;;;;;;949220;146;27388;-81
2023/10/06 11:33:58;;;;;;;5.17;2.70;;;23.60;61.90;;;;;;951595;146;27318;-82
2023/10/06 11:36:25;;;;;;;3.87;2.30;;;23.60;61.80;;;;;;951014;146;27333;-77
2023/10/06 11:38:51;;;;;;;5.20;2.60;;;23.60;62.00;;;;;;950548;146;27339;-82
2023/10/06 11:41:23;;;;;;;3.50;2.05;;;23.60;62.10;;;;;;950820;146;27328;-83
2023/10/06 11:43:53;;;;;;;5.50;3.15;;;23.60;62.10;;;;;;952453;146;27472;-81
2023/10/06 11:46:19;;;;;;;5.60;2.70;;;23.60;61.80;;;;;;951810;146;27269;-77
2023/10/06 11:48:46;;;;;;;4.30;2.40;;;23.60;61.70;;;;;;952136;146;27298;-81
2023/10/06 11:51:15;;;;;;;4.65;2.50;;;23.60;61.40;;;;;;950975;146;27347;-80
2023/10/06 11:53:41;;;;;;;2.58;2.00;;;23.60;61.30;;;;;;952682;146;27422;-81
2023/10/06 11:56:09;;;;;;;5.30;2.80;;;23.60;61.50;;;;;;952005;146;27296;-83
2023/10/06 11:58:39;;;;;;;4.65;2.25;;;23.60;61.40;;;;;;950801;146;27340;-79
2023/10/06 12:01:01;;;;;;;2.95;2.45;;;23.60;61.00;;;;;;953985;146;27391;-81
2023/10/06 12:03:42;;;;;;;3.02;2.02;;;23.60;61.00;;;;;;955283;146;27680;-77
2023/10/06 12:06:15;;;;;;;3.27;2.40;;;23.60;60.70;;;;;;951345;146;27421;-81
2023/10/06 12:08:41;;;;;;;6.05;2.60;;;23.60;60.40;;;;;;950325;146;27489;-76
2023/10/06 12:11:08;;;;;;;2.87;2.17;;;23.60;60.40;;;;;;951153;146;27247;-76
2023/10/06 12:13:36;;;;;;;4.60;2.80;;;23.50;60.30;;;;;;950331;144;27329;-76
2023/10/06 12:16:01;;;;;;;3.58;2.25;;;23.50;60.30;;;;;;951090;146;27341;-76
2023/10/06 12:18:29;;;;;;;4.78;3.00;;;23.50;60.30;;;;;;948085;146;27342;-76
2023/10/06 12:20:55;;;;;;;3.62;2.40;;;23.50;60.20;;;;;;951161;146;27313;-76
2023/10/06 12:23:21;;;;;;;5.53;3.10;;;23.40;60.00;;;;;;952414;146;27325;-76
2023/10/06 12:25:48;;;;;;;3.47;2.42;;;23.40;60.10;;;;;;952288;146;27463;-76
2023/10/06 12:28:16;;;;;;;5.47;2.45;;;23.30;59.90;;;;;;949804;146;27313;-76
2023/10/06 12:30:41;;;;;;;3.80;2.15;;;23.30;59.90;;;;;;951399;146;27426;-76
2023/10/06 12:33:10;;;;;;;2.47;1.85;;;23.30;59.80;;;;;;951610;146;28485;-76
2023/10/06 12:35:36;;;;;;;3.52;2.10;;;23.30;60.70;;;;;;950470;146;27751;-76
2023/10/06 12:38:00;;;;;;;2.17;1.90;;;23.20;60.00;;;;;;951255;146;27792;-76
2023/10/06 12:40:27;;;;;;;3.55;2.52;;;23.20;60.10;;;;;;951443;146;27400;-76
2023/10/06 12:42:54;;;;;;;3.52;2.40;;;23.20;60.20;;;;;;950542;146;27339;-76
2023/10/06 12:45:21;;;;;;;3.77;2.20;;;23.20;60.00;;;;;;953287;146;27371;-76
2023/10/06 12:47:47;;;;;;;3.45;2.60;;;23.20;60.00;;;;;;953055;146;27339;-76
2023/10/06 12:50:16;;;;;;;3.62;2.22;;;23.20;59.90;;;;;;951623;146;27392;-76
2023/10/06 12:52:40;;;;;;;2.22;1.90;;;23.20;59.60;;;;;;950021;146;27266;-76